Time;durP1;ratioP1;P1;durP2;ratioP2;P2;SDS_P1;SDS_P2;PMS_P1;PMS_P2;Temp;Humidity;BMP_temperature;BMP_pressure;BME280_temperature;BME280_humidity;BME280_pressure;Samples;Min_cycle;Max_cycle;Signal;HPM_P1;HPM_P2
2022/06/12 00:00:07;;;;;;;6.28;5.00;;;20.40;99.90;;;;;;5117620;28;20046;-72
2022/06/12 00:02:33;;;;;;;5.10;4.38;;;20.30;99.90;;;;;;5117190;28;20024;-66
2022/06/12 00:05:00;;;;;;;4.40;4.00;;;20.20;99.90;;;;;;5117248;28;20048;-72
2022/06/12 00:07:26;;;;;;;5.93;4.10;;;20.20;99.90;;;;;;5117386;28;20035;-70
2022/06/12 00:09:51;;;;;;;7.65;5.13;;;20.20;99.90;;;;;;5117372;28;20038;-73
2022/06/12 00:12:17;;;;;;;5.05;4.00;;;20.30;99.90;;;;;;5117035;28;20111;-70
2022/06/12 00:14:43;;;;;;;4.45;3.85;;;20.30;99.90;;;;;;5117194;28;20020;-70
2022/06/12 00:17:09;;;;;;;4.97;3.85;;;20.30;99.90;;;;;;5117355;28;20109;-70
2022/06/12 00:19:34;;;;;;;5.47;4.43;;;20.30;99.90;;;;;;5117149;28;20517;-69
2022/06/12 00:22:00;;;;;;;6.70;4.43;;;20.30;99.90;;;;;;5117119;28;20020;-68
2022/06/12 00:24:27;;;;;;;4.65;3.78;;;20.20;99.90;;;;;;5117012;28;20099;-69
2022/06/12 00:26:55;;;;;;;4.18;3.65;;;20.10;99.90;;;;;;5116926;28;20032;-76
2022/06/12 00:29:32;;;;;;;3.92;3.50;;;20.10;99.90;;;;;;5116800;28;20028;-70
2022/06/12 00:32:08;;;;;;;5.50;4.53;;;20.10;99.90;;;;;;5098562;28;20028;-66
2022/06/12 00:34:39;;;;;;;5.63;4.40;;;20.00;99.90;;;;;;5117129;28;20023;-69
2022/06/12 00:37:06;;;;;;;3.88;3.50;;;20.00;99.90;;;;;;5116798;28;20024;-67
2022/06/12 00:39:32;;;;;;;4.40;3.90;;;20.00;99.90;;;;;;5116487;28;20020;-70
2022/06/12 00:42:00;;;;;;;4.20;3.45;;;20.10;99.90;;;;;;5116633;28;20023;-74
2022/06/12 00:44:36;;;;;;;4.32;3.33;;;20.10;99.90;;;;;;5116635;28;20038;-75
2022/06/12 00:47:04;;;;;;;3.53;3.22;;;20.10;99.90;;;;;;5098162;28;20027;-70
2022/06/12 00:49:36;;;;;;;4.47;3.30;;;20.10;99.90;;;;;;5116659;28;20047;-72
2022/06/12 00:52:35;;;;;;;3.53;3.13;;;20.10;99.90;;;;;;5098414;28;20035;-71
2022/06/12 00:55:17;;;;;;;6.20;4.63;;;20.10;99.90;;;;;;5098097;28;20020;-67
2022/06/12 00:57:44;;;;;;;6.60;5.15;;;20.20;99.90;;;;;;5116306;28;20439;-76
2022/06/12 01:00:14;;;;;;;5.90;4.57;;;20.10;99.90;;;;;;5116459;28;20493;-67
2022/06/12 01:02:40;;;;;;;5.82;5.22;;;20.10;99.90;;;;;;5116429;28;20031;-66
2022/06/12 01:07:57;;;;;;;5.15;4.25;;;20.10;99.90;;;;;;5116441;28;20041;-72
2022/06/12 01:10:28;;;;;;;4.65;3.85;;;20.10;99.90;;;;;;5116068;28;20482;-74
2022/06/12 01:13:04;;;;;;;4.80;4.30;;;20.20;99.90;;;;;;5116034;28;20020;-70
2022/06/12 01:15:52;;;;;;;7.05;5.60;;;20.10;99.90;;;;;;5116056;28;20386;-72
2022/06/12 01:18:22;;;;;;;8.02;5.80;;;20.10;99.90;;;;;;5115972;28;20019;-70
2022/06/12 01:21:02;;;;;;;5.80;4.68;;;20.10;99.90;;;;;;5115753;28;20028;-69
2022/06/12 01:24:05;;;;;;;5.65;4.60;;;20.00;99.90;;;;;;5115930;28;20034;-68
2022/06/12 01:26:58;;;;;;;5.03;4.53;;;20.00;99.90;;;;;;5116066;28;20094;-69
2022/06/12 01:29:40;;;;;;;5.25;4.50;;;20.00;99.90;;;;;;5115569;28;20028;-68
2022/06/12 01:32:33;;;;;;;5.80;4.32;;;20.00;99.90;;;;;;5115577;28;20027;-70
2022/06/12 01:35:31;;;;;;;6.38;4.68;;;20.00;99.90;;;;;;5097622;28;20466;-72
2022/06/12 01:38:01;;;;;;;5.43;4.57;;;20.00;99.90;;;;;;5087572;28;20474;-74
2022/06/12 01:40:36;;;;;;;6.43;4.90;;;20.00;99.90;;;;;;5097280;28;20490;-70
2022/06/12 01:43:16;;;;;;;7.88;5.53;;;19.90;99.90;;;;;;5115707;28;20019;-68
2022/06/12 01:45:58;;;;;;;7.28;5.10;;;19.90;99.90;;;;;;5115591;28;20583;-75
2022/06/12 01:48:43;;;;;;;5.93;4.50;;;19.90;99.90;;;;;;5097378;28;20020;-69
2022/06/12 01:51:24;;;;;;;6.95;5.20;;;19.80;99.90;;;;;;5097043;28;20034;-67
2022/06/12 01:54:08;;;;;;;6.00;5.40;;;19.70;99.90;;;;;;5096764;28;20383;-68
2022/06/12 01:56:55;;;;;;;6.32;4.78;;;19.70;99.90;;;;;;5114992;28;20043;-72
2022/06/12 01:59:46;;;;;;;8.40;5.80;;;19.60;99.90;;;;;;5114654;28;20420;-73
2022/06/12 02:02:25;;;;;;;9.10;5.53;;;19.60;99.90;;;;;;5084117;28;20084;-71
2022/06/12 02:05:22;;;;;;;8.52;5.50;;;19.50;99.90;;;;;;5115122;28;20026;-70
2022/06/12 02:07:59;;;;;;;7.38;5.40;;;19.50;99.90;;;;;;5114813;28;20428;-76
2022/06/12 02:10:34;;;;;;;9.80;6.00;;;19.50;99.90;;;;;;5114909;28;20043;-67
2022/06/12 02:13:14;;;;;;;10.40;6.55;;;19.40;99.90;;;;;;5114813;28;20023;-74
2022/06/12 02:15:49;;;;;;;9.57;6.05;;;19.40;99.90;;;;;;5115066;28;20012;-72
2022/06/12 02:18:29;;;;;;;9.13;5.78;;;19.30;99.90;;;;;;5114935;28;20027;-73
2022/06/12 02:21:10;;;;;;;9.20;5.35;;;19.30;99.90;;;;;;5096883;28;20035;-73
2022/06/12 02:23:44;;;;;;;9.52;6.05;;;19.40;99.90;;;;;;5096372;28;20032;-67
2022/06/12 02:26:14;;;;;;;10.73;5.78;;;19.30;99.90;;;;;;5096602;28;20470;-72
2022/06/12 02:28:44;;;;;;;10.75;6.70;;;19.30;99.90;;;;;;5096473;28;20031;-71
2022/06/12 02:31:19;;;;;;;10.05;6.18;;;19.30;99.90;;;;;;5114835;28;20026;-70
2022/06/12 02:33:52;;;;;;;8.75;5.63;;;19.30;99.90;;;;;;5114635;28;20382;-76
2022/06/12 02:36:22;;;;;;;10.70;5.72;;;19.30;99.90;;;;;;5114345;28;20462;-63
2022/06/12 02:38:57;;;;;;;8.05;5.75;;;19.30;99.90;;;;;;5114587;28;20019;-72
2022/06/12 02:41:23;;;;;;;6.65;5.03;;;19.30;99.90;;;;;;5114626;28;20054;-75
2022/06/12 02:43:54;;;;;;;7.80;4.95;;;19.20;99.90;;;;;;5114466;28;20367;-67
2022/06/12 02:46:47;;;;;;;7.55;4.20;;;19.20;99.90;;;;;;5114277;28;20043;-68
2022/06/12 02:49:15;;;;;;;5.53;3.92;;;19.20;99.90;;;;;;5106029;28;20118;-69
2022/06/12 02:52:01;;;;;;;5.50;3.92;;;19.20;99.90;;;;;;5114097;28;20028;-70
2022/06/12 02:54:47;;;;;;;4.40;3.60;;;19.20;99.90;;;;;;5096307;28;20445;-68
2022/06/12 02:57:42;;;;;;;4.97;3.30;;;19.20;99.90;;;;;;5113436;28;20089;-74
2022/06/12 03:00:26;;;;;;;4.70;3.17;;;19.20;99.90;;;;;;5114383;28;20043;-74
2022/06/12 03:03:18;;;;;;;5.18;3.08;;;19.20;99.90;;;;;;5114332;28;20019;-68
2022/06/12 03:05:49;;;;;;;3.28;2.70;;;19.10;99.90;;;;;;5114150;28;20084;-68
2022/06/12 03:08:19;;;;;;;3.63;2.67;;;19.00;99.90;;;;;;5114374;28;20020;-67
2022/06/12 03:10:54;;;;;;;3.83;2.85;;;19.00;99.90;;;;;;5098326;28;20039;-70
2022/06/12 03:13:22;;;;;;;3.47;2.45;;;18.90;99.90;;;;;;5118465;28;20473;-69
2022/06/12 03:16:08;;;;;;;4.15;3.17;;;18.90;99.90;;;;;;5100205;28;20023;-73
2022/06/12 03:18:40;;;;;;;5.40;3.72;;;18.90;99.90;;;;;;5100064;28;20118;-69
2022/06/12 03:21:19;;;;;;;3.47;2.90;;;18.80;99.90;;;;;;5118043;28;20056;-64
2022/06/12 03:23:45;;;;;;;3.50;3.17;;;18.80;99.90;;;;;;5118433;28;20024;-68
2022/06/12 03:26:34;;;;;;;5.13;3.50;;;18.70;99.90;;;;;;5118407;28;20482;-73
2022/06/12 03:29:39;;;;;;;5.22;3.15;;;18.70;99.90;;;;;;5092579;28;20035;-73
2022/06/12 03:32:18;;;;;;;3.08;2.67;;;18.80;99.90;;;;;;5076417;28;20043;-73
2022/06/12 03:34:57;;;;;;;3.75;2.97;;;18.80;99.90;;;;;;5099745;28;20024;-68
2022/06/12 03:38:04;;;;;;;4.25;3.50;;;18.80;99.90;;;;;;5117986;28;20370;-66
2022/06/12 03:40:48;;;;;;;3.60;2.75;;;18.80;99.90;;;;;;5117917;28;20072;-78
2022/06/12 03:43:32;;;;;;;5.80;3.00;;;18.80;99.90;;;;;;5117966;28;20077;-73
2022/06/12 03:46:07;;;;;;;2.83;2.38;;;18.70;99.90;;;;;;5117781;28;20019;-73
2022/06/12 03:49:03;;;;;;;2.90;2.13;;;18.60;99.90;;;;;;5117974;28;20027;-70
2022/06/12 03:51:57;;;;;;;4.88;2.47;;;18.60;99.90;;;;;;5117722;28;20383;-74
2022/06/12 03:54:26;;;;;;;2.22;2.03;;;18.70;99.90;;;;;;5117754;28;20534;-72
2022/06/12 03:59:55;;;;;;;3.55;2.17;;;18.90;99.90;;;;;;5117974;28;20473;-72
2022/06/12 04:02:25;;;;;;;4.50;2.70;;;18.90;99.90;;;;;;5117435;28;20026;-77
2022/06/12 04:04:52;;;;;;;4.55;2.05;;;18.90;99.90;;;;;;5117480;28;20023;-69
2022/06/12 04:07:20;;;;;;;3.13;1.92;;;18.90;99.90;;;;;;5117349;28;20055;-77
2022/06/12 04:09:50;;;;;;;2.58;2.38;;;19.00;99.90;;;;;;5117443;28;20024;-69
2022/06/12 04:12:26;;;;;;;2.97;2.25;;;19.00;99.90;;;;;;5117266;28;20028;-69
2022/06/12 04:15:01;;;;;;;3.22;2.88;;;19.00;99.90;;;;;;5117211;28;20054;-70
2022/06/12 04:17:27;;;;;;;3.65;2.60;;;19.00;99.90;;;;;;5117030;28;20020;-65
2022/06/12 04:19:59;;;;;;;3.28;2.97;;;19.10;99.90;;;;;;5117220;28;20030;-69
2022/06/12 04:22:40;;;;;;;4.10;3.70;;;19.10;99.90;;;;;;5116500;28;20390;-69
2022/06/12 04:25:30;;;;;;;3.35;3.03;;;19.10;99.90;;;;;;5117091;28;20024;-63
2022/06/12 04:27:56;;;;;;;3.08;2.85;;;19.20;99.90;;;;;;5117239;28;20046;-75
2022/06/12 04:30:27;;;;;;;4.40;2.85;;;19.10;99.90;;;;;;5117335;28;20019;-72
2022/06/12 04:33:04;;;;;;;2.78;2.50;;;19.20;99.90;;;;;;5116845;28;20077;-74
2022/06/12 04:35:33;;;;;;;5.15;3.58;;;19.30;99.90;;;;;;5116850;28;20378;-74
2022/06/12 04:37:59;;;;;;;3.03;2.70;;;19.40;99.90;;;;;;5116878;28;20031;-63
2022/06/12 04:40:28;;;;;;;3.17;2.55;;;19.40;99.90;;;;;;5116676;28;20015;-74
2022/06/12 04:42:53;;;;;;;2.40;2.20;;;19.40;99.90;;;;;;5116935;28;20385;-76
2022/06/12 04:45:19;;;;;;;3.72;2.10;;;19.40;99.90;;;;;;5116671;28;20020;-73
2022/06/12 04:47:45;;;;;;;2.65;1.83;;;19.40;99.90;;;;;;5116426;28;20156;-69
2022/06/12 04:50:15;;;;;;;2.53;2.13;;;19.60;99.90;;;;;;5116533;28;20107;-73
2022/06/12 04:52:41;;;;;;;3.85;2.90;;;19.70;99.90;;;;;;5116604;28;20050;-75
2022/06/12 04:55:07;;;;;;;4.93;3.53;;;19.80;99.90;;;;;;5116349;28;20028;-73
2022/06/12 04:57:33;;;;;;;3.97;2.90;;;19.80;99.90;;;;;;5116166;28;20036;-67
2022/06/12 04:59:59;;;;;;;2.92;2.60;;;19.80;99.90;;;;;;5116445;28;20386;-73
2022/06/12 05:02:24;;;;;;;3.60;2.90;;;19.90;99.90;;;;;;5116157;28;20106;-66
2022/06/12 05:04:51;;;;;;;3.75;2.28;;;19.90;99.90;;;;;;5116356;28;20069;-70
2022/06/12 05:07:16;;;;;;;2.58;2.05;;;19.90;99.90;;;;;;5116049;28;20421;-71
2022/06/12 05:09:43;;;;;;;2.75;1.90;;;19.90;99.90;;;;;;5116038;28;20038;-70
2022/06/12 05:12:12;;;;;;;2.63;1.77;;;20.00;99.90;;;;;;5116026;28;20020;-76
2022/06/12 05:14:38;;;;;;;1.65;1.50;;;20.10;99.90;;;;;;5097920;28;20024;-74
2022/06/12 05:17:09;;;;;;;2.58;1.77;;;20.10;99.90;;;;;;5115757;28;20125;-70
2022/06/12 05:19:38;;;;;;;2.03;1.88;;;20.20;99.90;;;;;;5116275;28;20050;-70
2022/06/12 05:22:05;;;;;;;3.60;1.50;;;20.30;99.90;;;;;;5116011;28;20084;-70
2022/06/12 05:24:31;;;;;;;2.60;1.92;;;20.30;99.90;;;;;;5115659;28;20153;-70
2022/06/12 05:26:59;;;;;;;2.17;1.92;;;20.30;99.90;;;;;;5115993;28;20114;-68
2022/06/12 05:29:31;;;;;;;2.92;2.05;;;20.40;99.90;;;;;;5115726;28;20043;-68
2022/06/12 05:31:58;;;;;;;3.28;1.65;;;20.50;99.90;;;;;;5097258;28;20031;-73
2022/06/12 05:34:25;;;;;;;2.05;1.80;;;20.50;99.90;;;;;;5096545;28;20024;-70
2022/06/12 05:36:51;;;;;;;1.92;1.50;;;20.70;99.90;;;;;;5097637;28;20456;-67
2022/06/12 05:39:18;;;;;;;2.10;1.77;;;20.70;99.90;;;;;;5115556;28;20035;-69
2022/06/12 05:41:44;;;;;;;3.08;1.73;;;20.70;99.90;;;;;;5115814;28;20023;-67
2022/06/12 05:44:10;;;;;;;3.55;1.70;;;20.60;99.90;;;;;;5115407;28;20026;-74
2022/06/12 05:46:36;;;;;;;2.92;1.83;;;20.70;99.90;;;;;;5115060;28;20024;-66
2022/06/12 05:49:02;;;;;;;2.92;1.63;;;20.90;99.90;;;;;;5115614;28;20032;-71
2022/06/12 05:51:28;;;;;;;2.65;1.52;;;21.10;99.90;;;;;;5115608;28;20047;-73
2022/06/12 05:53:54;;;;;;;3.03;2.17;;;21.20;99.90;;;;;;5115105;28;20062;-71
2022/06/12 05:56:22;;;;;;;1.65;1.55;;;21.30;99.90;;;;;;5115305;28;20036;-70
2022/06/12 05:58:48;;;;;;;2.10;1.90;;;21.30;99.90;;;;;;5115346;28;20099;-74
2022/06/12 06:01:15;;;;;;;2.78;1.70;;;21.30;99.90;;;;;;5115229;28;20107;-73
2022/06/12 06:03:41;;;;;;;3.72;1.80;;;21.40;99.90;;;;;;5096851;28;20470;-69
2022/06/12 06:06:12;;;;;;;2.70;1.25;;;21.60;99.90;;;;;;5097096;28;20034;-71
2022/06/12 06:08:38;;;;;;;2.42;1.20;;;21.90;99.90;;;;;;5096938;28;20035;-66
2022/06/12 06:11:03;;;;;;;3.63;1.50;;;22.10;99.90;;;;;;5115278;28;20478;-73
2022/06/12 06:13:29;;;;;;;1.27;1.17;;;22.10;99.90;;;;;;5114987;28;20068;-68
2022/06/12 06:15:55;;;;;;;2.97;1.60;;;22.20;99.90;;;;;;5115050;28;20049;-67
2022/06/12 06:18:21;;;;;;;2.03;1.30;;;22.30;99.90;;;;;;5114885;28;20493;-68
2022/06/12 06:20:47;;;;;;;1.13;1.02;;;22.20;99.90;;;;;;5114814;28;20023;-73
2022/06/12 06:23:14;;;;;;;1.63;1.50;;;22.30;99.90;;;;;;5114938;28;20026;-73
2022/06/12 06:25:40;;;;;;;2.97;1.30;;;22.60;99.90;;;;;;5096801;28;20016;-70
2022/06/12 06:28:08;;;;;;;2.17;1.30;;;22.60;99.90;;;;;;5114569;28;20029;-73
2022/06/12 06:30:35;;;;;;;2.20;1.27;;;22.80;99.90;;;;;;5114765;28;20020;-70
2022/06/12 06:33:01;;;;;;;1.30;1.20;;;22.90;99.90;;;;;;5114533;28;20015;-77
2022/06/12 06:35:27;;;;;;;1.90;1.30;;;23.00;99.90;;;;;;5096524;28;20024;-73
2022/06/12 06:37:54;;;;;;;2.33;1.70;;;23.00;99.90;;;;;;5114387;28;20525;-71
2022/06/12 06:40:22;;;;;;;2.40;1.30;;;23.00;99.90;;;;;;5114457;28;20031;-69
2022/06/12 06:42:48;;;;;;;1.30;1.20;;;22.90;99.90;;;;;;5114595;28;20058;-72
2022/06/12 06:48:00;;;;;;;1.98;1.40;;;23.00;99.90;;;;;;5114754;28;20042;-70
2022/06/12 06:50:26;;;;;;;3.10;1.50;;;23.00;99.90;;;;;;5114497;28;20102;-70
2022/06/12 06:52:52;;;;;;;2.67;1.58;;;23.00;99.90;;;;;;5114147;28;20082;-73
2022/06/12 06:55:18;;;;;;;1.50;1.40;;;22.90;99.90;;;;;;5096152;28;20044;-70
2022/06/12 06:57:46;;;;;;;1.90;1.50;;;22.90;99.90;;;;;;5113996;28;20489;-67
2022/06/12 07:00:17;;;;;;;2.25;1.60;;;23.00;99.90;;;;;;5114286;28;20103;-69
2022/06/12 07:02:43;;;;;;;2.33;1.60;;;23.00;99.90;;;;;;5114178;28;20058;-72
2022/06/12 07:05:09;;;;;;;2.17;1.65;;;23.00;99.90;;;;;;5113877;28;20027;-75
2022/06/12 07:07:36;;;;;;;3.00;1.85;;;23.20;99.90;;;;;;5114129;28;20024;-71
2022/06/12 07:10:03;;;;;;;6.20;2.08;;;23.30;99.90;;;;;;5114154;28;20433;-68
2022/06/12 07:12:29;;;;;;;2.25;1.60;;;23.60;99.90;;;;;;5113712;28;20031;-71
2022/06/12 07:14:55;;;;;;;3.33;1.45;;;24.00;99.90;;;;;;5095839;28;20027;-71
2022/06/12 07:17:21;;;;;;;5.85;1.77;;;24.30;99.90;;;;;;5114681;28;20043;-66
2022/06/12 07:19:46;;;;;;;2.42;1.80;;;24.20;99.90;;;;;;5114132;28;20034;-68
2022/06/12 07:22:12;;;;;;;4.60;1.80;;;24.30;99.90;;;;;;5114134;28;20032;-69
2022/06/12 07:24:38;;;;;;;4.15;1.98;;;24.50;99.90;;;;;;5114149;28;20478;-77
2022/06/12 07:27:04;;;;;;;2.60;1.90;;;24.60;99.90;;;;;;5095903;28;20111;-73
2022/06/12 07:29:30;;;;;;;1.95;1.77;;;24.90;99.90;;;;;;5095860;28;20028;-76
2022/06/12 07:31:56;;;;;;;3.53;1.92;;;25.20;99.90;;;;;;5113912;28;20038;-72
2022/06/12 07:34:22;;;;;;;2.22;1.70;;;25.40;99.90;;;;;;5095876;28;20016;-71
2022/06/12 07:36:51;;;;;;;2.72;1.90;;;25.40;99.90;;;;;;5114036;28;20041;-70
2022/06/12 07:39:22;;;;;;;2.70;2.13;;;25.50;99.90;;;;;;5114019;28;20038;-76
2022/06/12 07:41:50;;;;;;;2.45;1.83;;;25.70;99.90;;;;;;5113778;28;20055;-68
2022/06/12 07:44:20;;;;;;;2.40;1.83;;;26.00;99.00;;;;;;5095892;28;20047;-73
2022/06/12 07:46:47;;;;;;;3.58;1.77;;;26.40;97.70;;;;;;5113804;28;20015;-72
2022/06/12 07:49:13;;;;;;;2.80;1.52;;;26.80;98.20;;;;;;5113881;28;20097;-70
2022/06/12 07:51:39;;;;;;;2.17;1.98;;;26.90;96.60;;;;;;5113769;28;20115;-74
2022/06/12 07:54:05;;;;;;;2.17;1.70;;;27.10;95.70;;;;;;5113870;28;20058;-68
2022/06/12 07:56:31;;;;;;;1.85;1.60;;;27.20;95.00;;;;;;5113681;28;20039;-72
2022/06/12 07:58:57;;;;;;;2.40;1.70;;;27.60;94.40;;;;;;5117524;28;20039;-72
2022/06/12 08:01:26;;;;;;;1.80;1.70;;;27.80;92.90;;;;;;5117396;28;20482;-67
2022/06/12 08:03:52;;;;;;;2.13;1.98;;;27.70;92.20;;;;;;5117606;28;20072;-64
2022/06/12 08:06:19;;;;;;;2.42;2.22;;;27.60;91.40;;;;;;5117574;28;20030;-71
2022/06/12 08:08:45;;;;;;;1.73;1.55;;;27.50;91.00;;;;;;5099428;28;20390;-77
2022/06/12 08:11:11;;;;;;;1.90;1.80;;;27.60;92.70;;;;;;5117367;28;20019;-66
2022/06/12 08:13:37;;;;;;;2.55;1.55;;;27.40;90.90;;;;;;5117416;28;20035;-78
2022/06/12 08:16:03;;;;;;;2.00;1.45;;;27.40;90.80;;;;;;5117171;28;20023;-76
2022/06/12 08:18:29;;;;;;;3.47;1.63;;;27.70;91.20;;;;;;5117558;28;20030;-66
2022/06/12 08:20:59;;;;;;;1.90;1.70;;;27.80;91.40;;;;;;5117345;28;20020;-72
2022/06/12 08:23:33;;;;;;;2.65;1.60;;;27.50;90.70;;;;;;5099181;28;20023;-63
2022/06/12 08:26:14;;;;;;;3.13;1.88;;;27.20;91.50;;;;;;5117071;28;20019;-69
2022/06/12 08:28:46;;;;;;;1.60;1.50;;;26.60;91.40;;;;;;5117032;28;20095;-73
2022/06/12 08:31:16;;;;;;;2.03;1.92;;;26.90;92.20;;;;;;5117077;28;20020;-68
2022/06/12 08:33:44;;;;;;;3.70;2.03;;;27.00;92.30;;;;;;5117064;28;20107;-76
2022/06/12 08:36:12;;;;;;;2.38;2.17;;;26.90;92.10;;;;;;5116948;28;20016;-76
2022/06/12 08:38:38;;;;;;;3.92;2.10;;;26.90;91.80;;;;;;5116944;28;20031;-69
2022/06/12 08:41:07;;;;;;;2.45;1.80;;;27.30;92.20;;;;;;5116959;28;20023;-74
2022/06/12 08:43:53;;;;;;;1.92;1.60;;;27.60;91.80;;;;;;5116696;28;20020;-70
2022/06/12 08:46:30;;;;;;;2.35;2.08;;;27.70;91.30;;;;;;5098451;28;20023;-70
2022/06/12 08:49:16;;;;;;;2.03;1.83;;;28.40;88.40;;;;;;5116828;28;20019;-71
2022/06/12 08:51:54;;;;;;;2.08;1.85;;;29.00;91.60;;;;;;5116547;28;20020;-72
2022/06/12 08:54:45;;;;;;;3.70;3.42;;;29.40;90.60;;;;;;5116765;28;20069;-78
2022/06/12 08:57:16;;;;;;;2.75;2.55;;;30.00;87.70;;;;;;5098450;28;20422;-72
2022/06/12 08:59:51;;;;;;;2.67;1.90;;;30.50;84.60;;;;;;5116642;28;20050;-68
2022/06/12 09:02:26;;;;;;;2.17;1.92;;;30.90;85.80;;;;;;5116339;28;20510;-75
2022/06/12 09:04:51;;;;;;;2.38;2.17;;;30.50;77.60;;;;;;5098519;28;20378;-67
2022/06/12 09:07:52;;;;;;;1.92;1.83;;;30.40;78.40;;;;;;5116212;28;20028;-74
2022/06/12 09:10:27;;;;;;;2.83;1.83;;;30.60;79.60;;;;;;5098039;28;20119;-72
2022/06/12 09:13:05;;;;;;;3.05;1.80;;;30.80;81.40;;;;;;5116385;28;20023;-72
2022/06/12 09:15:43;;;;;;;2.38;2.28;;;31.20;77.80;;;;;;5098305;28;20114;-76
2022/06/12 09:18:31;;;;;;;2.90;2.00;;;31.30;74.70;;;;;;5115884;28;20024;-67
2022/06/12 09:21:10;;;;;;;1.90;1.60;;;31.50;75.80;;;;;;5116001;28;20028;-71
2022/06/12 09:23:44;;;;;;;3.58;2.10;;;32.20;77.10;;;;;;5097753;28;20020;-72
2022/06/12 09:26:14;;;;;;;2.72;2.00;;;32.50;74.30;;;;;;5097962;28;20028;-69
2022/06/12 09:29:00;;;;;;;2.00;1.80;;;32.50;71.60;;;;;;5115854;28;20084;-64
2022/06/12 09:31:45;;;;;;;3.50;1.90;;;32.20;70.60;;;;;;5097533;28;20028;-71
2022/06/12 09:34:26;;;;;;;2.97;2.15;;;32.30;70.70;;;;;;5097855;28;20024;-75
2022/06/12 09:40:30;;;;;;;1.70;1.60;;;32.10;69.30;;;;;;5115935;28;20030;-74
2022/06/12 09:43:34;;;;;;;3.20;2.22;;;32.30;74.20;;;;;;5111285;28;20032;-77
2022/06/12 09:46:14;;;;;;;2.45;2.25;;;32.50;72.30;;;;;;5115391;28;20023;-69
2022/06/12 09:49:06;;;;;;;2.70;1.80;;;32.50;71.40;;;;;;5115364;28;20022;-70
2022/06/12 09:51:41;;;;;;;2.63;1.95;;;32.30;67.50;;;;;;5115286;28;20019;-76
2022/06/12 09:54:38;;;;;;;3.38;2.00;;;32.70;75.50;;;;;;5115353;28;20028;-77
2022/06/12 09:57:20;;;;;;;1.67;1.58;;;32.70;66.70;;;;;;5115332;28;20043;-78
2022/06/12 10:00:07;;;;;;;2.28;2.03;;;33.00;69.30;;;;;;5115352;28;20099;-76
2022/06/12 10:02:47;;;;;;;3.03;2.22;;;32.60;67.60;;;;;;5115199;28;20106;-71
2022/06/12 10:05:22;;;;;;;2.45;2.00;;;32.40;69.40;;;;;;5115146;28;20023;-77
2022/06/12 10:07:58;;;;;;;1.70;1.50;;;32.60;69.10;;;;;;5115033;28;20363;-69
2022/06/12 10:10:47;;;;;;;2.28;1.65;;;32.50;69.80;;;;;;5115311;28;20412;-71
2022/06/12 10:13:21;;;;;;;2.95;2.75;;;32.50;69.80;;;;;;5115212;28;20126;-74
2022/06/12 10:15:52;;;;;;;1.80;1.70;;;32.20;66.50;;;;;;5096939;28;20470;-72
2022/06/12 10:18:27;;;;;;;2.35;1.80;;;32.50;69.80;;;;;;5114840;28;20024;-73
2022/06/12 10:21:00;;;;;;;2.53;2.30;;;32.80;71.10;;;;;;5114458;28;20020;-75
2022/06/12 10:23:26;;;;;;;2.25;1.70;;;32.90;68.10;;;;;;5096660;28;20024;-75
2022/06/12 10:26:00;;;;;;;2.40;2.20;;;32.60;65.50;;;;;;5115054;28;20496;-74
2022/06/12 10:28:33;;;;;;;2.65;1.83;;;31.90;67.50;;;;;;5114824;28;20446;-70
2022/06/12 10:31:11;;;;;;;2.15;1.70;;;31.80;68.70;;;;;;5114577;28;20034;-70
2022/06/12 10:33:42;;;;;;;2.17;1.80;;;32.00;68.60;;;;;;5114710;28;20095;-71
2022/06/12 10:36:19;;;;;;;1.97;1.80;;;32.20;68.60;;;;;;5114571;28;20102;-76
2022/06/12 10:38:45;;;;;;;1.70;1.60;;;32.60;67.70;;;;;;5096635;28;20092;-69
2022/06/12 10:41:25;;;;;;;2.17;1.92;;;32.30;66.60;;;;;;5114422;28;20024;-74
2022/06/12 10:43:53;;;;;;;2.85;2.30;;;32.80;75.30;;;;;;5114638;28;20023;-72
2022/06/12 10:46:23;;;;;;;2.63;2.33;;;33.20;66.30;;;;;;5114435;28;20023;-71
2022/06/12 10:49:02;;;;;;;2.63;2.03;;;33.30;71.10;;;;;;5114561;28;20055;-73
2022/06/12 10:51:35;;;;;;;2.00;1.80;;;33.50;67.80;;;;;;5096422;28;20024;-74
2022/06/12 10:54:11;;;;;;;1.60;1.50;;;33.70;66.10;;;;;;5114660;28;20024;-78
2022/06/12 10:56:45;;;;;;;1.85;1.75;;;33.20;65.20;;;;;;5114625;28;20039;-75
2022/06/12 10:59:42;;;;;;;2.78;2.13;;;32.70;65.50;;;;;;5114443;28;20019;-74
2022/06/12 11:02:34;;;;;;;2.42;2.22;;;31.70;66.30;;;;;;5086312;28;20039;-67
2022/06/12 11:05:35;;;;;;;1.90;1.80;;;31.40;68.90;;;;;;5110455;28;20039;-73
2022/06/12 11:08:26;;;;;;;1.73;1.63;;;31.20;66.40;;;;;;5083410;28;20478;-71
2022/06/12 11:11:03;;;;;;;3.53;2.15;;;31.30;71.10;;;;;;5114078;28;20097;-74
2022/06/12 11:13:34;;;;;;;3.25;2.80;;;30.70;66.70;;;;;;5114425;28;20015;-70
2022/06/12 11:16:33;;;;;;;2.35;2.20;;;30.20;66.60;;;;;;5114228;28;20026;-78
2022/06/12 11:19:04;;;;;;;2.35;2.25;;;30.20;70.10;;;;;;5096098;28;20019;-72
2022/06/12 11:21:40;;;;;;;2.13;2.03;;;29.80;67.80;;;;;;5114290;28;20528;-69
2022/06/12 11:24:14;;;;;;;2.50;2.30;;;29.90;69.30;;;;;;5114206;28;20087;-75
2022/06/12 11:27:31;;;;;;;2.40;2.20;;;30.00;69.10;;;;;;5114055;28;20024;-71
2022/06/12 11:30:10;;;;;;;2.75;1.83;;;29.70;68.10;;;;;;5069301;28;20047;-73
2022/06/12 11:32:43;;;;;;;1.92;1.83;;;30.20;72.10;;;;;;5115831;28;20497;-71
2022/06/12 11:35:27;;;;;;;3.30;1.92;;;30.70;69.40;;;;;;5118157;28;20127;-75
2022/06/12 11:38:36;;;;;;;2.15;1.92;;;30.90;70.80;;;;;;5118187;28;20020;-72
2022/06/12 11:41:28;;;;;;;1.90;1.80;;;31.20;73.90;;;;;;5018827;28;20053;-73
2022/06/12 11:44:13;;;;;;;3.83;1.83;;;31.60;68.80;;;;;;5117992;28;20024;-70
2022/06/12 11:46:44;;;;;;;2.33;2.13;;;31.00;67.20;;;;;;5117651;28;20428;-76
2022/06/12 11:49:22;;;;;;;2.33;2.08;;;30.80;68.40;;;;;;5117872;28;20023;-71
2022/06/12 11:51:50;;;;;;;2.20;2.00;;;30.40;70.70;;;;;;5117772;28;20389;-67
2022/06/12 11:54:34;;;;;;;2.67;2.47;;;29.90;69.20;;;;;;5117895;28;20047;-74
2022/06/12 11:57:17;;;;;;;2.50;2.28;;;30.50;67.10;;;;;;5117582;28;20047;-68
2022/06/12 12:00:21;;;;;;;1.90;1.73;;;31.20;71.90;;;;;;5117645;28;20020;-72
2022/06/12 12:02:54;;;;;;;2.13;2.03;;;31.10;69.00;;;;;;5072157;28;20036;-68
2022/06/12 12:05:45;;;;;;;1.80;1.70;;;30.50;67.70;;;;;;5117385;28;20024;-70
2022/06/12 12:08:52;;;;;;;1.80;1.70;;;30.40;70.60;;;;;;5099394;28;20097;-73
2022/06/12 12:11:27;;;;;;;1.88;1.77;;;30.40;69.70;;;;;;5116842;28;20028;-73
2022/06/12 12:13:58;;;;;;;1.90;1.70;;;30.60;68.50;;;;;;5117336;28;20015;-69
2022/06/12 12:16:46;;;;;;;1.70;1.60;;;30.50;70.50;;;;;;5117474;28;20016;-73
2022/06/12 12:19:28;;;;;;;2.05;1.50;;;30.40;67.70;;;;;;5117086;28;20068;-73
2022/06/12 12:22:04;;;;;;;2.03;1.85;;;30.40;66.30;;;;;;5117446;28;20024;-69
2022/06/12 12:24:42;;;;;;;2.28;2.05;;;30.50;65.00;;;;;;5117265;28;20019;-75
2022/06/12 12:27:17;;;;;;;2.05;1.92;;;30.60;68.30;;;;;;5117224;28;20049;-76
2022/06/12 12:29:45;;;;;;;2.75;1.98;;;29.90;66.20;;;;;;5117005;28;20019;-74
2022/06/12 12:32:12;;;;;;;2.17;1.98;;;29.70;67.60;;;;;;5116927;28;20028;-74
2022/06/12 12:34:40;;;;;;;2.30;2.10;;;29.50;68.50;;;;;;5117201;28;20020;-66
2022/06/12 12:42:43;;;;;;;2.10;1.90;;;28.90;70.30;;;;;;5116329;28;20053;-64
2022/06/12 12:45:31;;;;;;;1.83;1.73;;;29.00;70.90;;;;;;5098458;28;20469;-67
2022/06/12 12:47:57;;;;;;;2.08;1.55;;;29.30;73.00;;;;;;5116762;28;20102;-68
2022/06/12 12:50:23;;;;;;;3.42;2.03;;;29.80;71.80;;;;;;5098443;28;20114;-72
2022/06/12 12:52:54;;;;;;;2.20;1.92;;;29.90;71.00;;;;;;5116346;28;20442;-77
2022/06/12 12:55:26;;;;;;;2.45;2.25;;;29.80;69.40;;;;;;5116593;28;20069;-73
2022/06/12 12:57:53;;;;;;;2.35;1.88;;;29.60;67.50;;;;;;5116608;28;20086;-69
2022/06/12 13:00:18;;;;;;;2.95;2.50;;;29.50;70.00;;;;;;5115959;28;20020;-67
2022/06/12 13:03:18;;;;;;;2.42;2.22;;;29.30;69.70;;;;;;5116288;28;20510;-73
2022/06/12 13:05:46;;;;;;;4.82;2.67;;;29.10;68.80;;;;;;5102035;28;20031;-73
2022/06/12 13:08:23;;;;;;;2.60;2.40;;;28.90;69.20;;;;;;5116557;28;20477;-73
2022/06/12 13:11:07;;;;;;;3.08;2.25;;;28.60;71.80;;;;;;5097901;28;20119;-77
2022/06/12 13:13:45;;;;;;;2.00;1.90;;;28.90;74.60;;;;;;5116498;28;20027;-79
2022/06/12 13:16:47;;;;;;;2.50;1.92;;;29.30;72.30;;;;;;5115931;28;20103;-73
2022/06/12 13:19:19;;;;;;;4.25;2.10;;;29.50;71.50;;;;;;5116116;28;20537;-72
2022/06/12 13:22:23;;;;;;;2.33;1.98;;;29.50;69.80;;;;;;5115917;28;20091;-68
2022/06/12 13:25:04;;;;;;;2.40;2.20;;;29.90;76.10;;;;;;5112065;28;20085;-74
2022/06/12 13:27:33;;;;;;;2.10;2.00;;;30.20;69.50;;;;;;5115889;28;20019;-75
2022/06/12 13:30:00;;;;;;;2.35;2.10;;;30.10;71.00;;;;;;5115866;28;20047;-71
2022/06/12 13:32:33;;;;;;;2.00;1.90;;;30.20;67.50;;;;;;5115711;28;20020;-74
2022/06/12 13:35:05;;;;;;;2.22;1.98;;;30.40;71.40;;;;;;5115793;28;20023;-74
2022/06/12 13:37:37;;;;;;;3.55;1.80;;;30.70;71.30;;;;;;5115919;28;20051;-75
2022/06/12 13:40:32;;;;;;;2.00;1.90;;;31.20;69.30;;;;;;5115864;28;20015;-71